createdAt,value
2023-05-08T00:00:47.683Z,46.67
2023-05-08T00:01:50.214Z,44.25
2023-05-08T00:02:54.973Z,48.33
2023-05-08T00:03:57.480Z,50.75
2023-05-08T00:05:05.221Z,45.63
2023-05-08T00:06:07.851Z,47.85
2023-05-08T00:07:12.499Z,51.80
2023-05-08T00:08:15.561Z,56.97
2023-05-08T00:09:20.353Z,57.88
2023-05-08T00:10:22.375Z,59.00
2023-05-08T00:11:27.188Z,67.82
2023-05-08T00:12:29.303Z,56.85
2023-05-08T00:13:36.575Z,57.13
2023-05-08T00:14:38.596Z,49.20
2023-05-08T00:15:43.442Z,51.28
2023-05-08T00:16:45.605Z,61.00
2023-05-08T00:17:50.364Z,85.65
2023-05-08T00:18:53.950Z,66.53
2023-05-08T00:19:58.902Z,67.97
2023-05-08T00:21:01.100Z,62.53
2023-05-08T00:22:05.708Z,57.03
2023-05-08T00:23:07.794Z,52.53
2023-05-08T00:24:12.739Z,49.47
2023-05-08T00:25:14.867Z,50.33
2023-05-08T00:26:19.559Z,47.33
2023-05-08T00:27:21.861Z,33.65
2023-05-08T00:28:26.501Z,45.10
2023-05-08T00:29:31.304Z,39.15
2023-05-08T00:30:35.987Z,37.85
2023-05-08T00:31:38.030Z,43.42
2023-05-08T00:32:42.880Z,42.72
2023-05-08T00:33:45.029Z,68.25
2023-05-08T00:34:49.656Z,52.08
2023-05-08T00:35:51.769Z,49.78
2023-05-08T00:36:56.492Z,45.85
2023-05-08T00:37:58.592Z,44.38
2023-05-08T00:39:03.213Z,40.05
2023-05-08T00:40:06.693Z,35.58
2023-05-08T00:41:11.343Z,47.22
2023-05-08T00:42:13.369Z,43.50
2023-05-08T00:43:18.035Z,44.05
2023-05-08T00:44:20.073Z,52.70
2023-05-08T00:45:28.130Z,43.80
2023-05-08T00:46:31.183Z,43.40
2023-05-08T00:47:35.976Z,38.95
2023-05-08T00:48:40.166Z,46.53
2023-05-08T00:49:45.797Z,42.45
2023-05-08T00:50:48.730Z,47.90
2023-05-08T00:51:55.894Z,47.28
2023-05-08T00:52:59.142Z,46.97
2023-05-08T00:54:03.936Z,49.65
2023-05-08T00:55:07.845Z,42.05
2023-05-08T00:56:13.983Z,43.80
2023-05-08T00:57:16.840Z,45.17
2023-05-08T00:58:22.309Z,47.40
2023-05-08T00:59:26.251Z,37.10
2023-05-08T01:00:35.194Z,37.45
2023-05-08T01:01:38.095Z,43.97
2023-05-08T01:02:43.550Z,47.65
2023-05-08T01:03:45.939Z,43.65
2023-05-08T01:04:51.338Z,50.97
2023-05-08T01:05:54.770Z,45.15
2023-05-08T01:06:59.514Z,44.67
2023-05-08T01:08:01.597Z,47.17
2023-05-08T01:09:08.095Z,44.33
2023-05-08T01:10:11.152Z,44.83
2023-05-08T01:11:22.002Z,38.60
2023-05-08T01:12:31.343Z,51.88
2023-05-08T01:13:48.916Z,42.28
2023-05-08T01:15:04.252Z,60.33
2023-05-08T01:16:17.477Z,50.83
2023-05-08T01:17:42.718Z,48.17
2023-05-08T01:18:53.950Z,38.70
2023-05-08T01:20:06.304Z,44.15
2023-05-08T01:21:16.811Z,60.50
2023-05-08T01:22:32.815Z,94.13
2023-05-08T01:24:07.462Z,59.35
2023-05-08T01:25:35.281Z,57.92
2023-05-08T01:27:18.408Z,45.40
2023-05-08T01:28:55.709Z,44.13
2023-05-08T01:30:42.008Z,46.80
2023-05-08T01:32:07.947Z,50.47
2023-05-08T01:33:20.676Z,48.33
2023-05-08T01:34:27.270Z,42.30
2023-05-08T01:35:36.467Z,55.67
2023-05-08T01:36:47.418Z,54.15
2023-05-08T01:38:00.932Z,73.60
2023-05-08T01:39:18.221Z,57.53
2023-05-08T01:40:34.706Z,51.67
2023-05-08T01:41:37.956Z,44.55
2023-05-08T01:42:49.650Z,48.20
2023-05-08T01:45:03.658Z,51.65
2023-05-08T01:46:13.714Z,56.75
2023-05-08T01:47:27.022Z,48.55
2023-05-08T01:48:33.142Z,49.20
2023-05-08T01:49:43.000Z,50.08
2023-05-08T01:50:47.979Z,46.70
2023-05-08T01:52:00.175Z,50.53
2023-05-08T01:53:10.112Z,51.63
2023-05-08T01:54:20.529Z,52.78
2023-05-08T01:55:30.470Z,47.85
2023-05-08T01:56:35.837Z,43.35
2023-05-08T01:57:49.477Z,51.90
2023-05-08T01:59:02.808Z,55.03
2023-05-08T02:00:06.770Z,48.88
2023-05-08T02:01:13.885Z,58.15
2023-05-08T02:02:21.989Z,52.78
2023-05-08T02:03:25.492Z,52.92
2023-05-08T02:04:31.401Z,50.80
2023-05-08T02:05:35.456Z,47.45
2023-05-08T02:06:41.763Z,51.45
2023-05-08T02:07:46.875Z,59.53
2023-05-08T02:08:52.710Z,53.22
2023-05-08T02:09:55.889Z,62.40
2023-05-08T02:11:03.620Z,52.80
2023-05-08T02:12:08.426Z,58.08
2023-05-08T02:13:14.443Z,47.30
2023-05-08T02:14:19.912Z,50.33
2023-05-08T02:15:27.461Z,47.20
2023-05-08T02:16:31.268Z,47.97
2023-05-08T02:17:41.278Z,63.78
2023-05-08T02:18:47.297Z,57.78
2023-05-08T02:19:54.156Z,63.65
2023-05-08T02:20:59.672Z,69.28
2023-05-08T02:22:05.673Z,72.90
2023-05-08T02:23:08.805Z,63.38
2023-05-08T02:24:14.539Z,59.25
2023-05-08T02:25:17.182Z,50.75
2023-05-08T02:26:23.077Z,55.65
2023-05-08T02:27:28.243Z,52.13
2023-05-08T02:28:33.968Z,52.75
2023-05-08T02:29:36.716Z,44.55
2023-05-08T02:30:43.276Z,50.58
2023-05-08T02:31:47.087Z,52.55
2023-05-08T02:32:58.930Z,52.17
2023-05-08T02:36:07.064Z,51.03
2023-05-08T02:37:11.744Z,50.25
2023-05-08T02:38:18.617Z,51.80
2023-05-08T02:39:25.606Z,54.40
2023-05-08T02:40:32.458Z,49.10
2023-05-08T02:41:35.557Z,43.28
2023-05-08T02:42:40.451Z,45.15
2023-05-08T02:43:42.864Z,44.10
2023-05-08T02:44:47.861Z,51.03
2023-05-08T02:45:57.326Z,52.65
2023-05-08T02:47:08.699Z,56.35
2023-05-08T02:48:26.662Z,51.90
2023-05-08T02:49:40.912Z,49.90
2023-05-08T02:50:50.915Z,50.58
2023-05-08T02:52:00.106Z,51.47
2023-05-08T02:53:05.259Z,51.10
2023-05-08T02:54:14.674Z,57.45
2023-05-08T02:55:30.029Z,49.75
2023-05-08T02:56:40.359Z,49.22
2023-05-08T02:57:48.377Z,55.85
2023-05-08T02:59:02.380Z,52.85
2023-05-08T03:00:12.820Z,52.88
2023-05-08T03:01:24.688Z,44.13
2023-05-08T03:03:41.914Z,47.35
2023-05-08T03:04:51.644Z,60.00
2023-05-08T03:05:59.643Z,44.65
2023-05-08T03:07:03.424Z,44.15
2023-05-08T03:08:13.127Z,55.40
2023-05-08T03:09:19.730Z,50.65
2023-05-08T03:10:28.023Z,50.42
2023-05-08T03:11:43.279Z,40.72
2023-05-08T03:12:52.590Z,49.45
2023-05-08T03:13:59.298Z,39.08
2023-05-08T03:15:10.030Z,47.85
2023-05-08T03:16:17.582Z,49.78
2023-05-08T03:17:25.918Z,40.97
2023-05-08T03:18:35.283Z,47.08
2023-05-08T03:19:42.210Z,55.10
2023-05-08T03:20:47.976Z,53.03
2023-05-08T03:21:54.864Z,54.30
2023-05-08T03:22:57.689Z,57.10
2023-05-08T03:24:05.078Z,48.72
2023-05-08T03:25:10.788Z,43.45
2023-05-08T03:26:20.300Z,47.78
2023-05-08T03:27:23.289Z,46.63
2023-05-08T03:28:29.203Z,49.55
2023-05-08T03:29:33.699Z,48.28
2023-05-08T03:30:40.218Z,48.75
2023-05-08T03:31:44.141Z,49.90
2023-05-08T03:32:49.709Z,43.55
2023-05-08T03:33:55.932Z,50.25
2023-05-08T03:35:02.536Z,52.50
2023-05-08T03:36:05.392Z,56.25
2023-05-08T03:37:10.515Z,52.20
2023-05-08T03:38:13.100Z,50.92
2023-05-08T03:39:17.878Z,45.15
2023-05-08T03:40:20.476Z,59.90
2023-05-08T03:41:25.561Z,50.10
2023-05-08T03:42:28.142Z,49.33
2023-05-08T03:43:34.538Z,48.97
2023-05-08T03:44:38.121Z,58.25
2023-05-08T03:45:43.632Z,47.92
2023-05-08T03:46:47.499Z,50.92
2023-05-08T03:48:18.847Z,30.35
2023-05-08T03:49:28.150Z,56.95
2023-05-08T03:50:30.737Z,58.25
2023-05-08T03:51:37.401Z,55.58
2023-05-08T03:52:39.455Z,61.38
2023-05-08T03:53:44.132Z,54.63
2023-05-08T03:54:46.330Z,44.70
2023-05-08T03:55:51.007Z,60.95
2023-05-08T03:56:54.488Z,60.78
2023-05-08T03:58:02.977Z,55.15
2023-05-08T03:59:12.340Z,61.88
2023-05-08T04:00:25.002Z,64.78
2023-05-08T04:01:40.085Z,56.92
2023-05-08T04:02:52.813Z,53.90
2023-05-08T04:04:01.790Z,64.10
2023-05-08T04:05:26.382Z,80.80
2023-05-08T04:06:48.707Z,58.53
2023-05-08T04:07:59.381Z,59.65
2023-05-08T04:09:08.039Z,71.70
2023-05-08T04:10:19.075Z,74.47
2023-05-08T04:11:30.742Z,54.40
2023-05-08T04:13:49.349Z,57.00
2023-05-08T04:14:58.521Z,71.60
2023-05-08T04:16:07.559Z,83.63
2023-05-08T04:17:15.002Z,76.63
2023-05-08T04:18:19.211Z,65.78
2023-05-08T04:19:27.930Z,64.75
2023-05-08T04:20:34.394Z,70.63
2023-05-08T04:21:42.242Z,76.90
2023-05-08T04:22:47.057Z,77.28
2023-05-08T04:23:54.445Z,83.22
2023-05-08T04:25:00.687Z,107.68
2023-05-08T04:26:06.830Z,98.50
2023-05-08T04:27:10.181Z,92.70
2023-05-08T04:28:15.086Z,72.47
2023-05-08T04:29:18.788Z,54.75
2023-05-08T04:30:23.651Z,66.85
2023-05-08T04:31:27.899Z,62.78
2023-05-08T04:32:35.116Z,58.70
2023-05-08T04:33:37.346Z,63.40
2023-05-08T04:34:42.272Z,64.75
2023-05-08T04:35:47.386Z,58.53
2023-05-08T04:36:52.444Z,60.85
2023-05-08T04:37:54.743Z,59.63
2023-05-08T04:38:59.504Z,59.15
2023-05-08T04:40:02.436Z,63.15
2023-05-08T04:41:07.441Z,66.25
2023-05-08T04:42:09.602Z,64.13
2023-05-08T04:43:14.434Z,60.67
2023-05-08T04:44:16.555Z,59.30
2023-05-08T04:45:21.711Z,57.22
2023-05-08T04:46:24.829Z,59.88
2023-05-08T04:47:29.696Z,57.72
2023-05-08T04:48:34.061Z,60.33
2023-05-08T04:49:38.720Z,47.53
2023-05-08T04:50:40.890Z,60.33
2023-05-08T04:51:48.177Z,59.55
2023-05-08T04:52:50.224Z,52.38
2023-05-08T04:53:54.984Z,58.55
2023-05-08T04:54:57.017Z,45.60
2023-05-08T04:56:01.747Z,46.13
2023-05-08T04:57:04.225Z,61.78
2023-05-08T04:58:08.838Z,56.30
2023-05-08T04:59:12.480Z,60.50
2023-05-08T05:00:18.900Z,51.40
2023-05-08T05:01:20.946Z,54.33
2023-05-08T05:02:25.639Z,48.22
2023-05-08T05:03:27.725Z,59.50
2023-05-08T05:04:32.411Z,57.75
2023-05-08T05:05:38.715Z,54.88
2023-05-08T05:06:43.945Z,58.20
2023-05-08T05:07:48.607Z,55.92
2023-05-08T05:08:53.244Z,60.55
2023-05-08T05:09:55.302Z,733.88
2023-05-08T05:12:06.318Z,892.65
2023-05-08T05:13:08.475Z,877.13
2023-05-08T05:14:13.202Z,864.92
2023-05-08T05:15:15.904Z,856.03
2023-05-08T05:16:20.585Z,850.70
2023-05-08T05:17:22.662Z,852.75
2023-05-08T05:18:27.366Z,865.92
2023-05-08T05:19:29.590Z,864.13
2023-05-08T05:20:34.817Z,856.45
2023-05-08T05:21:38.188Z,844.67
2023-05-08T05:22:42.819Z,827.72
2023-05-08T05:23:47.508Z,855.83
2023-05-08T05:24:52.389Z,851.97
2023-05-08T05:25:54.392Z,878.83
2023-05-08T05:27:00.615Z,873.42
2023-05-08T05:28:02.642Z,859.42
2023-05-08T05:29:07.556Z,884.15
2023-05-08T05:30:10.319Z,880.80
2023-05-08T05:31:15.227Z,874.42
2023-05-08T05:32:17.287Z,867.92
2023-05-08T05:33:22.036Z,866.25
2023-05-08T05:34:24.115Z,839.30
2023-05-08T05:35:28.746Z,832.53
2023-05-08T05:36:30.943Z,868.58
2023-05-08T05:37:36.031Z,857.50
2023-05-08T05:38:38.131Z,837.88
2023-05-08T05:39:45.383Z,850.78
2023-05-08T05:40:47.549Z,862.25
2023-05-08T05:41:52.278Z,857.75
2023-05-08T05:42:56.959Z,848.65
2023-05-08T05:43:59.029Z,859.30
2023-05-08T05:45:03.890Z,869.67
2023-05-08T05:46:06.160Z,870.88
2023-05-08T05:47:11.387Z,841.28
2023-05-08T05:48:13.537Z,872.25
2023-05-08T05:49:18.278Z,885.42
2023-05-08T05:50:21.682Z,844.20
2023-05-08T05:51:27.806Z,870.83
2023-05-08T05:52:29.870Z,869.63
2023-05-08T05:53:34.662Z,866.50
2023-05-08T05:54:36.680Z,881.17
2023-05-08T05:55:43.974Z,860.22
2023-05-08T05:56:46.034Z,877.97
2023-05-08T05:57:51.170Z,853.28
2023-05-08T05:58:53.252Z,846.85
2023-05-08T05:59:59.923Z,842.63
2023-05-08T06:01:01.936Z,842.08
2023-05-08T06:02:06.666Z,858.45
2023-05-08T06:03:09.058Z,840.78
2023-05-08T06:04:13.845Z,867.88
2023-05-08T06:05:15.955Z,858.05
2023-05-08T06:06:20.616Z,846.67
2023-05-08T06:07:22.792Z,882.40
2023-05-08T06:08:27.404Z,884.35
2023-05-08T06:09:30.241Z,891.97
2023-05-08T06:10:34.941Z,870.60
2023-05-08T06:11:39.668Z,861.08
2023-05-08T06:12:44.426Z,868.47
2023-05-08T06:13:47.277Z,876.88
2023-05-08T06:14:54.811Z,895.60
2023-05-08T06:15:57.051Z,909.63
2023-05-08T06:17:01.734Z,931.70
2023-05-08T06:18:04.123Z,894.70
2023-05-08T06:19:08.903Z,887.67
2023-05-08T06:20:11.348Z,912.40
2023-05-08T06:21:16.332Z,891.90
2023-05-08T06:22:23.357Z,887.03
2023-05-08T06:23:28.428Z,892.53
2023-05-08T06:24:30.824Z,914.50
2023-05-08T06:25:35.487Z,913.72
2023-05-08T06:26:40.202Z,924.42
2023-05-08T06:27:44.839Z,893.67
2023-05-08T06:28:49.732Z,923.47
2023-05-08T06:29:54.895Z,926.85
2023-05-08T06:30:56.969Z,923.95
2023-05-08T06:32:01.729Z,927.42
2023-05-08T06:33:04.180Z,937.42
2023-05-08T06:34:09.427Z,908.70
2023-05-08T06:35:12.537Z,930.88
2023-05-08T06:36:17.413Z,940.60
2023-05-08T06:37:19.565Z,945.88
2023-05-08T06:38:24.562Z,962.45
2023-05-08T06:39:26.661Z,939.05
2023-05-08T06:40:31.676Z,946.65
2023-05-08T06:41:33.924Z,948.17
2023-05-08T06:42:41.469Z,926.65
2023-05-08T06:43:43.533Z,933.00
2023-05-08T06:44:48.165Z,947.67
2023-05-08T06:45:50.505Z,927.20
2023-05-08T06:46:55.518Z,930.35
2023-05-08T06:47:57.784Z,941.58
2023-05-08T06:49:02.452Z,953.40
2023-05-08T06:50:05.252Z,936.22
2023-05-08T06:51:09.871Z,938.38
2023-05-08T06:52:14.513Z,949.70
2023-05-08T06:53:16.549Z,950.58
2023-05-08T06:54:21.177Z,958.17
2023-05-08T06:55:23.457Z,946.72
2023-05-08T06:56:28.127Z,932.55
2023-05-08T06:57:30.635Z,941.40
2023-05-08T06:58:37.885Z,947.70
2023-05-08T06:59:42.512Z,924.65
2023-05-08T07:00:47.208Z,940.72
2023-05-08T07:01:49.346Z,932.10
2023-05-08T07:02:54.947Z,915.40
2023-05-08T07:03:57.008Z,946.03
2023-05-08T07:05:02.015Z,941.78
2023-05-08T07:06:07.424Z,934.90
2023-05-08T07:07:09.461Z,965.60
2023-05-08T07:08:14.091Z,942.20
2023-05-08T07:09:19.580Z,956.78
2023-05-08T07:10:24.417Z,962.53
2023-05-08T07:11:29.124Z,925.40
2023-05-08T07:12:31.147Z,948.30
2023-05-08T07:13:38.598Z,961.80
2023-05-08T07:14:40.637Z,938.47
2023-05-08T07:15:45.298Z,941.70
2023-05-08T07:16:47.410Z,925.90
2023-05-08T07:17:52.189Z,923.17
2023-05-08T07:18:54.271Z,929.35
2023-05-08T07:19:58.926Z,927.30
2023-05-08T07:21:03.568Z,944.30
2023-05-08T07:22:06.031Z,963.35
2023-05-08T07:23:10.769Z,946.83
2023-05-08T07:24:15.417Z,958.17
2023-05-08T07:25:17.613Z,930.45
2023-05-08T07:26:22.759Z,941.35
2023-05-08T07:27:24.883Z,956.50
2023-05-08T07:28:29.788Z,962.50
2023-05-08T07:29:37.788Z,938.85
2023-05-08T07:30:39.871Z,963.60
2023-05-08T07:31:46.054Z,952.67
2023-05-08T07:32:50.860Z,955.70
2023-05-08T07:33:52.979Z,941.83
2023-05-08T07:34:57.631Z,945.10
2023-05-08T07:36:02.305Z,973.78
2023-05-08T07:37:04.382Z,940.58
2023-05-08T07:38:09.332Z,948.85
2023-05-08T07:39:11.516Z,953.28
2023-05-08T07:40:16.504Z,943.03
2023-05-08T07:41:21.191Z,940.63
2023-05-08T07:42:23.260Z,971.88
2023-05-08T07:43:27.948Z,963.55
2023-05-08T07:44:43.537Z,965.22
2023-05-08T07:45:52.235Z,946.25
2023-05-08T07:46:54.291Z,958.63
2023-05-08T07:48:00.447Z,923.30
2023-05-08T07:49:02.536Z,930.40
2023-05-08T07:50:08.070Z,942.90
2023-05-08T07:51:11.423Z,945.63
2023-05-08T07:52:16.080Z,999.90
2023-05-08T07:53:18.357Z,984.78
2023-05-08T07:54:23.025Z,947.65
2023-05-08T07:55:25.190Z,969.17
2023-05-08T07:56:30.210Z,959.03
2023-05-08T07:57:37.214Z,954.47
2023-05-08T07:58:42.860Z,949.25
2023-05-08T07:59:50.137Z,960.42
2023-05-08T08:00:52.279Z,948.80
2023-05-08T08:01:56.978Z,946.42
2023-05-08T08:02:59.180Z,962.53
2023-05-08T08:04:04.071Z,959.40
2023-05-08T08:05:09.427Z,958.40
2023-05-08T08:06:14.087Z,957.78
2023-05-08T08:07:16.191Z,983.92
2023-05-08T08:08:21.056Z,975.40
2023-05-08T08:09:23.289Z,975.22
2023-05-08T08:10:28.304Z,977.85
2023-05-08T08:11:30.344Z,965.55
2023-05-08T08:12:35.218Z,948.60
2023-05-08T08:13:39.852Z,973.38
2023-05-08T08:14:41.949Z,996.33
2023-05-08T08:15:49.173Z,994.65
2023-05-08T08:16:51.306Z,980.40
2023-05-08T08:17:56.019Z,974.58
2023-05-08T08:19:00.767Z,985.25
2023-05-08T08:20:05.569Z,990.70
2023-05-08T08:21:10.868Z,984.47
2023-05-08T08:22:13.052Z,986.58
2023-05-08T08:23:17.749Z,995.90
2023-05-08T08:24:20.010Z,999.90
2023-05-08T08:25:24.996Z,996.83
2023-05-08T08:26:27.154Z,994.97
2023-05-08T08:27:32.458Z,994.25
2023-05-08T08:28:34.572Z,993.03
2023-05-08T08:29:39.333Z,962.38
2023-05-08T08:30:41.415Z,998.85
2023-05-08T08:31:48.742Z,966.55
2023-05-08T08:32:50.858Z,980.50
2023-05-08T08:33:55.533Z,991.08
2023-05-08T08:34:57.594Z,980.58
2023-05-08T08:36:02.291Z,975.63
2023-05-08T08:37:05.923Z,988.92
2023-05-08T08:38:10.582Z,993.53
2023-05-08T08:39:13.875Z,971.70
2023-05-08T08:40:19.958Z,996.95
2023-05-08T08:41:22.371Z,997.88
2023-05-08T08:42:27.137Z,995.25
2023-05-08T08:43:29.689Z,997.08
2023-05-08T08:44:34.400Z,995.55
2023-05-08T08:45:36.831Z,977.03
2023-05-08T08:46:47.688Z,983.70
2023-05-08T08:47:56.497Z,959.85
2023-05-08T08:48:59.601Z,965.15
2023-05-08T08:50:07.071Z,970.83
2023-05-08T08:51:17.106Z,977.45
2023-05-08T08:52:29.920Z,999.90
2023-05-08T08:53:37.675Z,989.97
2023-05-08T08:54:44.740Z,962.13
2023-05-08T08:55:50.689Z,978.72
2023-05-08T08:56:56.517Z,981.00
2023-05-08T08:58:12.855Z,981.35
2023-05-08T08:59:19.733Z,998.83
2023-05-08T09:00:26.348Z,999.90
2023-05-08T09:01:30.514Z,985.45
2023-05-08T09:02:35.412Z,986.60
2023-05-08T09:03:40.553Z,978.05
2023-05-08T09:04:45.578Z,988.90
2023-05-08T09:05:51.101Z,998.08
2023-05-08T09:06:54.127Z,996.17
2023-05-08T09:07:59.445Z,996.03
2023-05-08T09:09:02.299Z,998.80
2023-05-08T09:10:15.428Z,991.00
2023-05-08T09:11:20.112Z,996.88
2023-05-08T09:12:24.815Z,999.90
2023-05-08T09:13:27.109Z,998.42
2023-05-08T09:14:32.141Z,999.90
2023-05-08T09:15:34.377Z,999.90
2023-05-08T09:16:40.201Z,999.90
2023-05-08T09:17:42.367Z,999.90
2023-05-08T09:18:49.609Z,999.90
2023-05-08T09:19:52.708Z,994.03
2023-05-08T09:20:57.633Z,985.28
2023-05-08T09:22:00.702Z,999.90
2023-05-08T09:23:05.576Z,999.90
2023-05-08T09:24:07.746Z,996.83
2023-05-08T09:25:13.867Z,999.90
2023-05-08T09:26:27.818Z,999.90
2023-05-08T09:27:34.905Z,999.90
2023-05-08T09:28:39.521Z,999.90
2023-05-08T09:29:41.690Z,999.90
2023-05-08T09:30:52.666Z,999.90
2023-05-08T09:31:54.753Z,999.90
2023-05-08T09:33:04.591Z,999.90
2023-05-08T09:34:13.414Z,999.90
2023-05-08T09:35:15.813Z,999.90
2023-05-08T09:36:29.170Z,999.90
2023-05-08T09:37:31.573Z,999.90
2023-05-08T09:38:37.959Z,999.90
2023-05-08T09:39:41.682Z,999.90
2023-05-08T09:40:46.330Z,999.90
2023-05-08T09:42:00.885Z,999.90
2023-05-08T09:43:13.975Z,999.90
2023-05-08T09:44:18.694Z,999.90
2023-05-08T09:45:31.994Z,999.90
2023-05-08T09:46:35.054Z,999.90
2023-05-08T09:47:40.508Z,999.90
2023-05-08T09:48:43.095Z,999.90
2023-05-08T09:50:04.189Z,999.90
2023-05-08T09:51:06.879Z,999.90
2023-05-08T09:52:18.261Z,999.90
2023-05-08T09:53:22.880Z,999.90
2023-05-08T09:54:24.906Z,999.90
2023-05-08T09:55:29.621Z,999.90
2023-05-08T09:56:33.207Z,999.90
2023-05-08T09:57:39.907Z,999.90
2023-05-08T09:58:43.608Z,999.90
2023-05-08T09:59:48.296Z,999.90
2023-05-08T10:00:52.999Z,999.90
2023-05-08T10:01:56.116Z,999.90
2023-05-08T10:03:01.982Z,999.90
2023-05-08T10:04:06.249Z,999.90
2023-05-08T10:05:27.452Z,999.90
2023-05-08T10:06:30.065Z,999.90
2023-05-08T10:07:37.382Z,999.90
2023-05-08T10:08:39.420Z,999.90
2023-05-08T10:10:00.856Z,999.90
2023-05-08T10:11:14.835Z,999.90
2023-05-08T10:12:19.564Z,999.90
2023-05-08T10:13:21.819Z,999.90
2023-05-08T10:14:27.676Z,999.90
2023-05-08T10:15:33.798Z,999.90
2023-05-08T10:16:42.126Z,999.90
2023-05-08T10:17:53.245Z,999.90
2023-05-08T10:19:02.302Z,999.90
2023-05-08T10:20:10.528Z,999.90
2023-05-08T10:21:15.882Z,999.90
2023-05-08T10:22:22.847Z,999.90
2023-05-08T10:23:28.476Z,999.90
2023-05-08T10:24:36.771Z,999.90
2023-05-08T10:25:48.148Z,999.90
2023-05-08T10:27:06.383Z,999.90
2023-05-08T10:28:17.065Z,999.90
2023-05-08T10:29:27.703Z,999.90
2023-05-08T10:30:31.928Z,999.90
2023-05-08T10:31:39.972Z,999.90
2023-05-08T10:32:48.689Z,999.90
2023-05-08T10:33:55.358Z,999.90
2023-05-08T10:35:03.424Z,999.90
2023-05-08T10:36:10.119Z,999.90
2023-05-08T10:37:15.449Z,999.90
2023-05-08T10:38:22.648Z,999.90
2023-05-08T10:39:26.300Z,999.90
2023-05-08T10:40:31.383Z,999.90
2023-05-08T10:41:34.784Z,999.90
2023-05-08T10:42:39.994Z,999.90
2023-05-08T10:43:46.348Z,999.90
2023-05-08T10:44:51.766Z,999.90
2023-05-08T10:45:55.924Z,999.90
2023-05-08T10:47:10.832Z,999.90
2023-05-08T10:48:31.888Z,999.90
2023-05-08T10:49:44.420Z,999.90
2023-05-08T10:51:01.049Z,999.90
2023-05-08T10:52:16.639Z,999.90
2023-05-08T10:53:34.589Z,999.90
2023-05-08T10:54:53.169Z,999.90
2023-05-08T10:55:58.952Z,999.90
2023-05-08T10:57:14.403Z,999.90
2023-05-08T10:58:33.415Z,999.90
2023-05-08T10:59:36.315Z,999.90
2023-05-08T11:01:15.352Z,999.90
2023-05-08T11:02:32.199Z,999.90
2023-05-08T11:03:40.960Z,999.90
2023-05-08T11:04:46.743Z,999.90
2023-05-08T11:05:50.725Z,999.90
2023-05-08T11:06:55.785Z,999.90
2023-05-08T11:07:59.910Z,999.90
2023-05-08T11:09:08.863Z,999.90
2023-05-08T11:10:17.271Z,999.90
2023-05-08T11:11:29.040Z,999.90
2023-05-08T11:12:36.617Z,999.90
2023-05-08T11:13:43.640Z,999.90
2023-05-08T11:14:58.718Z,999.90
2023-05-08T11:16:01.850Z,999.90
2023-05-08T11:17:09.212Z,999.90
2023-05-08T11:18:12.353Z,999.90
2023-05-08T11:19:22.289Z,999.90
2023-05-08T11:20:42.317Z,999.90
2023-05-08T11:22:17.386Z,999.90
2023-05-08T11:23:25.841Z,999.90
2023-05-08T11:24:36.825Z,999.90
2023-05-08T11:25:46.322Z,999.90
2023-05-08T11:26:49.846Z,999.90
2023-05-08T11:28:12.930Z,999.90
2023-05-08T11:29:18.267Z,999.90
2023-05-08T11:30:38.163Z,999.90
2023-05-08T11:31:58.003Z,999.90
2023-05-08T11:33:16.499Z,999.90
2023-05-08T11:34:54.024Z,999.90
2023-05-08T11:36:00.600Z,999.90
2023-05-08T11:37:03.390Z,999.90
2023-05-08T11:38:41.296Z,999.90
2023-05-08T11:39:46.576Z,999.90
2023-05-08T11:40:58.334Z,999.90
2023-05-08T11:42:33.067Z,999.90
2023-05-08T11:44:14.911Z,999.90
2023-05-08T11:45:23.114Z,999.90
2023-05-08T11:46:39.510Z,999.90
2023-05-08T11:47:46.538Z,999.90
2023-05-08T11:48:49.402Z,999.90
2023-05-08T11:49:54.676Z,999.90
2023-05-08T11:50:57.881Z,999.90
2023-05-08T11:52:04.777Z,999.90
2023-05-08T11:53:07.839Z,999.90
2023-05-08T11:54:13.512Z,999.90
2023-05-08T11:55:20.288Z,999.90
2023-05-08T11:56:26.876Z,999.90
2023-05-08T11:57:31.429Z,999.90
2023-05-08T11:58:36.981Z,999.90
2023-05-08T11:59:45.234Z,999.90
2023-05-08T12:00:49.078Z,999.90
2023-05-08T12:02:07.504Z,999.90
2023-05-08T12:03:13.951Z,999.90
2023-05-08T12:04:19.489Z,999.90
2023-05-08T12:05:27.834Z,999.90
2023-05-08T12:06:33.047Z,999.90
2023-05-08T12:07:46.952Z,999.90
2023-05-08T12:08:49.550Z,999.90
2023-05-08T12:09:55.489Z,999.90
2023-05-08T12:11:01.184Z,999.90
2023-05-08T12:12:06.258Z,999.90
2023-05-08T12:13:19.178Z,999.90
2023-05-08T12:14:26.773Z,999.90
2023-05-08T12:15:29.557Z,999.90
2023-05-08T12:16:38.924Z,999.90
2023-05-08T12:17:42.186Z,999.90
2023-05-08T12:18:47.560Z,999.90
2023-05-08T12:20:04.632Z,999.90
2023-05-08T12:21:07.150Z,999.90
2023-05-08T12:22:12.737Z,999.90
2023-05-08T12:23:17.714Z,999.90
2023-05-08T12:24:25.798Z,999.90
2023-05-08T12:25:28.581Z,999.90
2023-05-08T12:26:38.986Z,999.90
2023-05-08T12:27:41.782Z,999.90
2023-05-08T12:28:49.648Z,999.90
2023-05-08T12:29:52.084Z,999.90
2023-05-08T12:30:57.664Z,999.90
2023-05-08T12:32:02.736Z,999.90
2023-05-08T12:33:06.344Z,999.90
2023-05-08T12:34:12.056Z,999.90
2023-05-08T12:35:15.895Z,999.90
2023-05-08T12:36:20.970Z,999.90
2023-05-08T12:37:28.266Z,999.90
2023-05-08T12:38:33.512Z,999.90
2023-05-08T12:39:37.851Z,999.90
2023-05-08T12:40:45.917Z,999.90
2023-05-08T12:41:52.726Z,999.90
2023-05-08T12:42:58.526Z,999.90
2023-05-08T12:44:03.703Z,999.90
2023-05-08T12:45:07.988Z,999.90
2023-05-08T12:46:17.347Z,999.90
2023-05-08T12:47:20.577Z,999.90
2023-05-08T12:48:26.790Z,999.90
2023-05-08T12:49:31.362Z,999.90
2023-05-08T12:50:38.705Z,999.90
2023-05-08T12:51:51.114Z,999.90
2023-05-08T12:52:53.898Z,999.90
2023-05-08T12:53:59.639Z,999.90
2023-05-08T12:55:02.718Z,999.90
2023-05-08T12:56:08.688Z,999.90
2023-05-08T12:57:15.153Z,999.90
2023-05-08T12:58:20.702Z,999.90
2023-05-08T12:59:32.400Z,999.90
2023-05-08T13:00:39.803Z,999.90
2023-05-08T13:01:45.296Z,999.90
2023-05-08T13:02:54.668Z,999.90
2023-05-08T13:04:03.166Z,999.90
2023-05-08T13:05:07.219Z,999.90
2023-05-08T13:06:23.640Z,999.90
2023-05-08T13:07:32.818Z,999.90
2023-05-08T13:08:39.356Z,999.90
2023-05-08T13:10:00.309Z,999.90
2023-05-08T13:11:07.249Z,999.90
2023-05-08T13:12:10.578Z,999.90
2023-05-08T13:13:19.913Z,999.90
2023-05-08T13:14:22.743Z,999.90
2023-05-08T13:15:28.096Z,999.90
2023-05-08T13:16:31.170Z,999.90
2023-05-08T13:17:36.809Z,999.90
2023-05-08T13:18:41.873Z,999.90
2023-05-08T13:19:44.771Z,999.90
2023-05-08T13:20:50.001Z,999.90
2023-05-08T13:21:53.330Z,999.90
2023-05-08T13:22:59.067Z,999.90
2023-05-08T13:24:04.359Z,999.90
2023-05-08T13:25:08.167Z,999.90
2023-05-08T13:26:13.346Z,999.90
2023-05-08T13:27:15.767Z,999.90
2023-05-08T13:28:23.764Z,999.90
2023-05-08T13:29:28.896Z,999.90
2023-05-08T13:30:34.175Z,999.90
2023-05-08T13:31:39.562Z,999.90
2023-05-08T13:32:42.377Z,999.90
2023-05-08T13:33:47.462Z,999.90
2023-05-08T13:34:51.649Z,999.90
2023-05-08T13:35:58.333Z,999.90
2023-05-08T13:37:00.958Z,999.90
2023-05-08T13:38:06.423Z,999.90
2023-05-08T13:39:09.052Z,999.90
2023-05-08T13:40:15.438Z,999.90
2023-05-08T13:41:20.625Z,999.90
2023-05-08T13:42:23.382Z,999.90
2023-05-08T13:43:31.344Z,999.90
2023-05-08T13:44:34.288Z,999.90
2023-05-08T13:45:39.685Z,999.90
2023-05-08T13:46:42.247Z,999.90
2023-05-08T13:47:48.688Z,999.90
2023-05-08T13:48:51.257Z,999.90
2023-05-08T13:49:56.625Z,999.90
2023-05-08T13:51:01.521Z,999.90
2023-05-08T13:52:05.205Z,999.90
2023-05-08T13:53:10.462Z,999.90
2023-05-08T13:54:12.547Z,999.90
2023-05-08T13:55:17.708Z,999.90
2023-05-08T13:56:23.622Z,999.90
2023-05-08T13:57:26.790Z,999.90
2023-05-08T13:58:34.327Z,999.90
2023-05-08T13:59:36.437Z,999.90
2023-05-08T14:00:41.078Z,999.90
2023-05-08T14:01:43.223Z,999.90
2023-05-08T14:02:49.549Z,999.90
2023-05-08T14:03:53.776Z,999.90
2023-05-08T14:04:58.483Z,999.90
2023-05-08T14:06:00.583Z,999.90